Time;durP1;ratioP1;P1;durP2;ratioP2;P2;SDS_P1;SDS_P2;PMS_P1;PMS_P2;Temp;Humidity;BMP_temperature;BMP_pressure;BME280_temperature;BME280_humidity;BME280_pressure;Samples;Min_cycle;Max_cycle;Signal;HPM_P1;HPM_P2
2022/04/29 00:00:42;;;;;;;20.20;14.80;;;13.50;35.60;;;;;;5012364;28;20553;-69
2022/04/29 00:03:09;;;;;;;26.50;15.77;;;13.40;34.80;;;;;;5012088;28;20200;-69
2022/04/29 00:05:36;;;;;;;22.03;15.60;;;13.40;33.90;;;;;;5012045;28;20435;-69
2022/04/29 00:08:06;;;;;;;26.30;15.50;;;13.40;34.40;;;;;;5013364;28;20420;-69
2022/04/29 00:10:32;;;;;;;23.53;15.33;;;13.40;34.20;;;;;;5012545;28;20467;-69
2022/04/29 00:13:01;;;;;;;23.67;16.10;;;13.40;32.90;;;;;;5012635;28;20494;-69
2022/04/29 00:15:27;;;;;;;23.63;15.60;;;13.30;34.60;;;;;;5012134;28;20436;-69
2022/04/29 00:17:53;;;;;;;28.70;15.80;;;13.20;35.30;;;;;;5012585;28;20765;-70
2022/04/29 00:20:19;;;;;;;28.27;16.40;;;13.10;34.90;;;;;;5012170;28;20439;-69
2022/04/29 00:22:45;;;;;;;21.67;15.40;;;12.90;35.10;;;;;;5011430;28;20845;-69
2022/04/29 00:25:11;;;;;;;22.10;15.17;;;12.90;35.20;;;;;;5011997;28;20276;-69
2022/04/29 00:27:39;;;;;;;24.77;15.10;;;12.80;36.10;;;;;;5012491;28;20185;-69
2022/04/29 00:30:08;;;;;;;21.60;15.75;;;12.80;35.70;;;;;;5012940;28;20858;-70
2022/04/29 00:32:34;;;;;;;22.90;15.87;;;13.00;34.60;;;;;;5012036;28;20209;-70
2022/04/29 00:34:59;;;;;;;25.17;15.90;;;12.80;35.10;;;;;;5011465;28;20454;-70
2022/04/29 00:37:25;;;;;;;22.87;15.93;;;12.90;35.00;;;;;;5012585;28;20460;-69
2022/04/29 00:39:51;;;;;;;25.67;16.70;;;12.80;37.50;;;;;;5012439;28;20204;-69
2022/04/29 00:42:22;;;;;;;27.43;17.83;;;12.70;38.00;;;;;;5012194;28;20459;-70
2022/04/29 00:44:48;;;;;;;25.43;16.50;;;12.80;35.90;;;;;;5011772;28;20463;-69
2022/04/29 00:47:19;;;;;;;26.88;17.00;;;12.60;37.00;;;;;;5011272;28;20519;-70
2022/04/29 00:49:45;;;;;;;25.03;16.10;;;12.80;36.90;;;;;;5012305;28;20197;-69
2022/04/29 00:52:14;;;;;;;28.13;17.70;;;12.60;37.40;;;;;;5011761;28;20452;-69
2022/04/29 00:54:42;;;;;;;24.80;17.57;;;12.50;38.10;;;;;;5011994;28;20482;-69
2022/04/29 00:57:14;;;;;;;31.55;17.52;;;12.60;37.90;;;;;;5010490;28;20471;-69
2022/04/29 01:00:04;;;;;;;28.73;18.03;;;12.50;37.60;;;;;;5011766;28;20193;-69
2022/04/29 01:02:31;;;;;;;23.92;16.83;;;12.50;37.00;;;;;;5011156;28;20982;-69
2022/04/29 01:05:06;;;;;;;27.60;18.60;;;12.40;38.30;;;;;;5011867;28;20208;-69
2022/04/29 01:07:33;;;;;;;27.80;17.10;;;10.80;36.90;;;;;;5011604;28;20660;-70
2022/04/29 01:09:59;;;;;;;22.77;16.30;;;12.20;39.10;;;;;;5011784;28;20200;-69
2022/04/29 01:12:27;;;;;;;32.03;18.13;;;12.30;38.60;;;;;;5010773;28;20208;-69
2022/04/29 01:14:54;;;;;;;26.73;18.27;;;12.20;38.70;;;;;;5011632;28;20238;-69
2022/04/29 01:17:20;;;;;;;31.42;20.15;;;12.10;38.80;;;;;;5008772;28;20539;-70
2022/04/29 01:19:45;;;;;;;27.60;18.30;;;12.00;39.50;;;;;;5011288;28;20185;-69
2022/04/29 01:22:11;;;;;;;28.70;18.60;;;12.10;40.20;;;;;;5005224;28;20236;-70
2022/04/29 01:24:37;;;;;;;27.97;18.67;;;12.10;40.40;;;;;;5011303;28;20671;-69
2022/04/29 01:27:10;;;;;;;28.67;17.80;;;12.00;40.40;;;;;;5011823;28;20671;-69
2022/04/29 01:29:40;;;;;;;34.13;18.70;;;12.10;39.30;;;;;;5008754;28;20181;-71
2022/04/29 01:32:08;;;;;;;29.88;17.40;;;12.20;39.20;;;;;;5008762;28;20955;-69
2022/04/29 01:34:33;;;;;;;30.25;17.85;;;12.10;39.20;;;;;;5011458;28;20547;-69
2022/04/29 01:36:59;;;;;;;27.90;17.57;;;12.60;39.20;;;;;;5011458;28;20267;-69
2022/04/29 01:39:25;;;;;;;28.77;18.37;;;12.10;38.60;;;;;;5009809;28;20554;-69
2022/04/29 01:41:51;;;;;;;32.13;19.43;;;12.10;39.50;;;;;;5011034;28;20244;-69
2022/04/29 01:44:17;;;;;;;26.90;17.55;;;12.10;39.70;;;;;;5011122;28;20616;-69
2022/04/29 01:46:43;;;;;;;31.10;18.77;;;12.10;38.40;;;;;;5010780;28;20184;-69
2022/04/29 01:49:10;;;;;;;23.43;17.30;;;12.20;39.10;;;;;;5009564;28;20671;-69
2022/04/29 01:51:35;;;;;;;27.95;18.23;;;11.90;39.30;;;;;;5010338;28;20474;-70
2022/04/29 01:54:01;;;;;;;29.13;19.30;;;11.90;39.40;;;;;;5010814;28;20188;-69
2022/04/29 01:56:32;;;;;;;35.50;20.47;;;11.90;39.00;;;;;;5011340;28;20181;-69
2022/04/29 01:59:00;;;;;;;29.83;20.02;;;11.80;39.30;;;;;;5010855;28;20181;-69
2022/04/29 02:01:27;;;;;;;33.17;18.80;;;11.70;40.20;;;;;;5010052;28;20215;-69
2022/04/29 02:03:54;;;;;;;31.70;19.33;;;11.70;40.70;;;;;;5011006;28;20320;-69
2022/04/29 02:06:21;;;;;;;29.75;17.50;;;12.10;41.50;;;;;;5011116;28;20184;-69
2022/04/29 02:08:46;;;;;;;34.97;19.05;;;11.70;39.90;;;;;;5010371;28;20208;-69
2022/04/29 02:11:12;;;;;;;25.93;17.10;;;11.60;40.00;;;;;;5009879;28;20221;-70
2022/04/29 02:13:38;;;;;;;27.83;17.93;;;11.60;39.80;;;;;;5010530;28;20191;-69
2022/04/29 02:16:04;;;;;;;29.35;18.30;;;11.60;40.60;;;;;;5010258;28;20184;-69
2022/04/29 02:18:30;;;;;;;24.83;17.40;;;11.60;41.30;;;;;;5011088;28;20585;-69
2022/04/29 02:20:56;;;;;;;31.20;18.90;;;11.70;40.00;;;;;;5009600;28;20472;-69
2022/04/29 02:23:22;;;;;;;26.77;17.53;;;11.70;41.20;;;;;;5010877;28;20427;-69
2022/04/29 02:25:47;;;;;;;24.33;17.00;;;11.50;40.20;;;;;;5010913;28;20279;-69
2022/04/29 02:28:13;;;;;;;24.30;17.43;;;11.70;39.70;;;;;;5009694;28;20265;-68
2022/04/29 02:30:40;;;;;;;23.30;15.83;;;11.50;41.00;;;;;;5010212;28;20291;-70
2022/04/29 02:33:06;;;;;;;25.05;16.42;;;11.30;41.00;;;;;;5008742;28;20209;-69
2022/04/29 02:35:32;;;;;;;27.92;16.80;;;11.30;40.80;;;;;;5010463;28;20196;-68
2022/04/29 02:37:57;;;;;;;27.73;16.70;;;11.30;42.00;;;;;;5010452;28;20188;-68
2022/04/29 02:40:24;;;;;;;25.60;16.90;;;11.30;41.90;;;;;;5010631;28;20215;-69
2022/04/29 02:42:50;;;;;;;25.60;17.45;;;11.30;41.90;;;;;;5009664;28;20304;-69
2022/04/29 02:45:16;;;;;;;31.88;18.13;;;11.30;41.60;;;;;;5010698;28;20195;-69
2022/04/29 02:47:41;;;;;;;26.00;16.47;;;11.30;41.70;;;;;;5014691;28;20185;-69
2022/04/29 02:50:08;;;;;;;24.43;16.67;;;12.50;43.10;;;;;;5014543;28;20230;-69
2022/04/29 02:52:34;;;;;;;24.95;17.00;;;11.40;40.60;;;;;;5011895;28;20208;-69
2022/04/29 02:54:59;;;;;;;23.73;16.73;;;11.30;40.60;;;;;;5014520;28;20212;-69
2022/04/29 02:57:25;;;;;;;29.60;17.30;;;11.20;40.80;;;;;;5014464;28;20218;-69
2022/04/29 02:59:51;;;;;;;24.10;16.77;;;11.10;41.70;;;;;;5014061;28;20266;-69
2022/04/29 03:02:17;;;;;;;27.90;16.60;;;11.00;41.70;;;;;;5014001;28;20214;-69
2022/04/29 03:04:42;;;;;;;25.77;17.87;;;10.90;43.30;;;;;;5013538;28;20194;-69
2022/04/29 03:07:08;;;;;;;30.53;17.37;;;10.80;43.60;;;;;;5014370;28;20184;-69
2022/04/29 03:09:33;;;;;;;30.33;17.70;;;10.70;43.80;;;;;;5014450;28;20659;-70
2022/04/29 03:11:59;;;;;;;28.33;18.70;;;10.70;45.90;;;;;;5013172;28;20698;-69
2022/04/29 03:14:25;;;;;;;33.60;18.20;;;10.80;44.20;;;;;;5013023;28;20184;-70
2022/04/29 03:16:51;;;;;;;28.87;18.17;;;10.70;44.20;;;;;;5014317;28;20176;-69
2022/04/29 03:19:17;;;;;;;33.20;17.30;;;10.60;43.30;;;;;;5014074;28;20188;-69
2022/04/29 03:21:42;;;;;;;29.00;17.70;;;10.70;42.80;;;;;;5013488;28;20448;-69
2022/04/29 03:24:08;;;;;;;27.40;17.93;;;10.60;43.40;;;;;;5013233;28;20194;-69
2022/04/29 03:26:35;;;;;;;25.20;17.40;;;10.50;43.90;;;;;;5013506;28;20186;-69
2022/04/29 03:29:01;;;;;;;27.42;18.50;;;10.70;44.40;;;;;;5013982;28;20639;-70
2022/04/29 03:31:27;;;;;;;25.53;16.20;;;10.90;43.60;;;;;;5013667;28;20210;-69
2022/04/29 03:33:52;;;;;;;28.30;18.23;;;10.90;42.80;;;;;;5013856;28;20935;-69
2022/04/29 03:36:18;;;;;;;28.87;18.37;;;10.80;42.70;;;;;;5012747;28;20562;-69
2022/04/29 03:38:44;;;;;;;28.10;17.90;;;10.90;43.90;;;;;;5013769;28;20710;-69
2022/04/29 03:41:10;;;;;;;30.47;18.87;;;10.80;43.70;;;;;;5013611;28;20209;-69
2022/04/29 03:43:35;;;;;;;36.10;19.33;;;10.70;43.40;;;;;;5013360;28;20246;-70
2022/04/29 03:46:01;;;;;;;27.80;18.70;;;10.90;43.00;;;;;;5012195;28;20443;-70
2022/04/29 03:48:27;;;;;;;33.63;19.00;;;10.80;43.70;;;;;;5014123;28;20181;-70
2022/04/29 03:50:53;;;;;;;34.03;19.67;;;10.90;42.80;;;;;;5013645;28;20835;-69
2022/04/29 03:53:22;;;;;;;30.47;20.93;;;10.70;42.40;;;;;;5012509;28;20715;-69
2022/04/29 03:55:48;;;;;;;33.80;20.30;;;10.60;44.60;;;;;;5013380;28;20660;-69
2022/04/29 03:58:14;;;;;;;30.30;20.03;;;10.60;43.50;;;;;;5012424;28;20213;-69
2022/04/29 04:00:40;;;;;;;27.60;19.30;;;10.40;43.80;;;;;;5013249;28;20182;-69
2022/04/29 04:03:06;;;;;;;27.85;19.27;;;10.50;43.50;;;;;;5013201;28;20296;-70
2022/04/29 04:05:34;;;;;;;35.70;18.37;;;10.60;43.20;;;;;;5011769;28;20335;-70
2022/04/29 04:08:00;;;;;;;32.13;20.63;;;10.50;43.10;;;;;;5013124;28;20182;-69
2022/04/29 04:10:26;;;;;;;33.13;19.30;;;10.50;44.20;;;;;;5012478;28;20214;-70
2022/04/29 04:12:52;;;;;;;28.43;19.03;;;10.50;43.60;;;;;;5012402;28;20583;-69
2022/04/29 04:15:20;;;;;;;32.97;20.60;;;10.50;42.80;;;;;;5012551;28;20428;-69
2022/04/29 04:17:46;;;;;;;47.70;19.42;;;10.50;43.10;;;;;;5011942;28;20449;-69
2022/04/29 04:20:13;;;;;;;34.15;19.00;;;10.50;42.30;;;;;;5013227;28;20200;-70
2022/04/29 04:22:39;;;;;;;27.77;18.98;;;10.50;43.20;;;;;;5012561;28;20201;-69
2022/04/29 04:25:07;;;;;;;30.43;18.90;;;10.60;41.70;;;;;;5011832;28;20192;-69
2022/04/29 04:27:32;;;;;;;33.00;17.65;;;10.60;42.50;;;;;;5011667;28;20514;-69
2022/04/29 04:29:59;;;;;;;31.30;18.90;;;10.70;41.90;;;;;;5012712;28;20240;-69
2022/04/29 04:32:25;;;;;;;27.25;17.90;;;10.60;42.00;;;;;;5012799;28;20598;-70
2022/04/29 04:34:53;;;;;;;29.25;18.15;;;10.50;43.70;;;;;;5012750;28;20193;-69
2022/04/29 04:37:21;;;;;;;36.83;19.10;;;10.50;42.60;;;;;;5012851;28;20176;-69
2022/04/29 04:39:47;;;;;;;28.35;18.38;;;10.50;42.60;;;;;;5011695;28;20267;-69
2022/04/29 04:42:13;;;;;;;34.30;19.65;;;10.60;42.70;;;;;;5012286;28;20713;-68
2022/04/29 04:44:39;;;;;;;30.98;20.20;;;10.70;42.40;;;;;;5012357;28;20668;-69
2022/04/29 04:47:05;;;;;;;32.43;19.20;;;10.60;43.50;;;;;;5012634;28;20251;-69
2022/04/29 04:49:32;;;;;;;41.38;21.90;;;10.70;43.60;;;;;;5011335;28;20561;-69
2022/04/29 04:51:57;;;;;;;39.75;21.27;;;10.80;42.90;;;;;;5011978;28;20214;-69
2022/04/29 04:54:23;;;;;;;39.47;20.77;;;10.90;42.20;;;;;;5012496;28;20174;-69
2022/04/29 04:56:49;;;;;;;32.03;20.57;;;11.00;41.90;;;;;;5011620;28;20927;-69
2022/04/29 04:59:15;;;;;;;33.30;20.47;;;11.00;42.50;;;;;;5011157;28;20662;-70
2022/04/29 05:01:41;;;;;;;30.95;19.55;;;11.10;42.00;;;;;;5011248;28;20639;-70
2022/04/29 05:04:06;;;;;;;40.83;19.70;;;11.10;42.60;;;;;;5011198;28;20270;-69
2022/04/29 05:06:32;;;;;;;31.90;20.40;;;11.10;41.40;;;;;;5010553;28;20272;-69
2022/04/29 05:08:58;;;;;;;37.60;20.00;;;11.30;42.10;;;;;;5011122;28;20262;-69
2022/04/29 05:11:23;;;;;;;31.33;19.07;;;11.30;43.30;;;;;;5009497;28;20269;-69
2022/04/29 05:13:49;;;;;;;33.43;22.23;;;11.50;42.10;;;;;;5010223;28;20666;-69
2022/04/29 05:16:15;;;;;;;32.00;21.50;;;11.60;41.30;;;;;;5010679;28;20248;-70
2022/04/29 05:18:40;;;;;;;28.00;19.73;;;11.70;41.70;;;;;;5025859;28;20184;-69
2022/04/29 05:21:06;;;;;;;36.60;20.70;;;12.40;40.70;;;;;;5007646;28;20204;-70
2022/04/29 05:23:32;;;;;;;31.47;21.03;;;12.00;39.10;;;;;;5009650;28;20216;-69
2022/04/29 05:25:57;;;;;;;35.00;20.73;;;12.10;39.30;;;;;;5007595;28;20208;-70
2022/04/29 05:28:23;;;;;;;35.03;20.70;;;12.40;38.90;;;;;;5009835;28;20184;-69
2022/04/29 05:30:49;;;;;;;30.83;20.27;;;12.20;38.30;;;;;;5011442;28;20649;-69
2022/04/29 05:33:15;;;;;;;30.70;20.67;;;12.20;38.40;;;;;;5010587;28;20200;-69
2022/04/29 05:35:41;;;;;;;33.77;21.13;;;12.40;38.70;;;;;;5011455;28;20422;-69
2022/04/29 05:38:07;;;;;;;31.57;19.53;;;12.60;39.50;;;;;;5011409;28;21139;-69
2022/04/29 05:43:17;;;;;;;47.80;19.80;;;12.60;36.90;;;;;;5009237;28;20207;-69
2022/04/29 05:45:43;;;;;;;32.40;21.00;;;12.30;37.00;;;;;;5010776;28;20440;-69
2022/04/29 05:48:08;;;;;;;28.10;19.33;;;12.30;38.00;;;;;;5009714;28;20498;-69
2022/04/29 05:50:34;;;;;;;27.67;19.40;;;12.10;39.30;;;;;;5007209;28;20688;-70
2022/04/29 05:53:00;;;;;;;30.87;19.30;;;12.50;37.50;;;;;;5009907;28;20714;-69
2022/04/29 05:55:26;;;;;;;31.13;18.93;;;12.50;37.30;;;;;;5009897;28;20511;-69
2022/04/29 05:57:51;;;;;;;39.53;19.97;;;12.00;37.10;;;;;;5011280;28;20248;-69
2022/04/29 06:00:19;;;;;;;43.13;20.50;;;11.80;39.40;;;;;;5010051;28;20243;-69
2022/04/29 06:02:46;;;;;;;32.40;19.97;;;12.00;38.80;;;;;;5009082;28;20595;-69
2022/04/29 06:05:12;;;;;;;34.90;19.63;;;11.70;40.30;;;;;;5009077;28;20440;-69
2022/04/29 06:07:37;;;;;;;34.33;19.60;;;11.60;39.90;;;;;;5005040;28;21006;-73
2022/04/29 06:10:05;;;;;;;35.63;21.17;;;11.40;40.80;;;;;;5010039;28;20291;-72
2022/04/29 06:12:36;;;;;;;30.57;19.60;;;11.80;39.80;;;;;;5008209;28;20205;-73
2022/04/29 06:15:02;;;;;;;37.47;20.50;;;12.20;39.60;;;;;;5011248;28;20429;-72
2022/04/29 06:17:27;;;;;;;28.67;17.13;;;12.10;37.00;;;;;;5011480;28;20555;-72
2022/04/29 06:19:53;;;;;;;27.87;17.13;;;12.00;37.00;;;;;;5010049;28;20204;-73
2022/04/29 06:22:19;;;;;;;28.63;17.87;;;12.80;34.70;;;;;;5004686;28;20203;-75
2022/04/29 06:24:44;;;;;;;28.50;17.30;;;12.30;36.50;;;;;;5011300;28;20181;-69
2022/04/29 06:27:10;;;;;;;36.03;18.40;;;12.90;34.00;;;;;;5011210;28;20184;-69
2022/04/29 06:29:36;;;;;;;27.10;18.50;;;12.40;36.10;;;;;;5011506;28;20412;-69
2022/04/29 06:32:02;;;;;;;35.27;19.47;;;12.70;36.90;;;;;;5008539;28;20860;-70
2022/04/29 06:34:27;;;;;;;41.33;18.00;;;12.70;34.90;;;;;;5009362;28;20212;-68
2022/04/29 06:36:53;;;;;;;33.20;20.10;;;12.60;36.10;;;;;;5010207;28;20186;-71
2022/04/29 06:39:18;;;;;;;29.43;19.73;;;12.90;36.00;;;;;;5025711;28;20792;-70
2022/04/29 06:41:44;;;;;;;39.77;21.23;;;12.80;36.20;;;;;;5009154;28;20220;-70
2022/04/29 06:44:10;;;;;;;33.50;19.50;;;12.90;36.40;;;;;;5010594;28;20182;-69
2022/04/29 06:46:35;;;;;;;30.20;18.50;;;13.40;36.90;;;;;;5010854;28;20184;-72
2022/04/29 06:49:01;;;;;;;42.87;19.33;;;13.20;35.30;;;;;;5026101;28;20227;-70
2022/04/29 06:51:27;;;;;;;27.53;18.83;;;13.20;35.00;;;;;;5009738;28;20219;-70
2022/04/29 06:53:52;;;;;;;33.20;18.87;;;13.20;34.90;;;;;;5009462;28;20184;-69
2022/04/29 06:56:18;;;;;;;25.63;17.17;;;12.90;36.80;;;;;;5010208;28;20205;-70
2022/04/29 06:58:44;;;;;;;24.30;17.30;;;13.40;35.50;;;;;;5010185;28;20215;-71
2022/04/29 07:01:09;;;;;;;24.43;17.83;;;14.00;32.80;;;;;;5010749;28;20213;-72
2022/04/29 07:03:36;;;;;;;24.03;16.73;;;13.40;32.50;;;;;;5009453;28;20447;-70
2022/04/29 07:06:04;;;;;;;23.87;17.27;;;12.90;35.00;;;;;;5010661;28;20682;-70
2022/04/29 07:08:30;;;;;;;34.43;18.20;;;13.50;34.40;;;;;;5010457;28;20529;-72
2022/04/29 07:10:56;;;;;;;30.33;17.70;;;13.60;33.80;;;;;;5009545;28;20554;-70
2022/04/29 07:13:22;;;;;;;24.83;16.63;;;13.80;35.00;;;;;;5007167;28;20246;-71
2022/04/29 07:15:48;;;;;;;41.13;17.30;;;14.20;31.90;;;;;;5010889;28;20428;-70
2022/04/29 07:18:14;;;;;;;25.37;17.03;;;14.30;31.70;;;;;;5009884;28;20427;-71
2022/04/29 07:20:41;;;;;;;27.60;17.27;;;14.50;31.00;;;;;;5010127;28;20460;-73
2022/04/29 07:23:07;;;;;;;26.97;17.70;;;15.10;31.20;;;;;;5008366;28;20463;-72
2022/04/29 07:25:32;;;;;;;26.30;17.87;;;17.60;30.70;;;;;;5009449;28;20437;-73
2022/04/29 07:27:58;;;;;;;29.23;17.60;;;15.80;29.90;;;;;;5008451;28;20546;-72
2022/04/29 07:30:24;;;;;;;23.50;16.10;;;16.00;30.00;;;;;;5009260;28;20204;-71
2022/04/29 07:32:49;;;;;;;32.27;17.13;;;15.90;29.70;;;;;;5011428;28;20459;-72
2022/04/29 07:43:27;;;;;;;27.40;17.60;;;15.00;31.00;;;;;;5006478;28;21093;-72
2022/04/29 07:45:53;;;;;;;26.53;17.30;;;15.60;29.90;;;;;;5010596;28;20526;-71
2022/04/29 07:48:20;;;;;;;22.47;16.33;;;15.60;29.40;;;;;;5010806;28;20425;-73
2022/04/29 07:50:46;;;;;;;27.73;16.30;;;15.80;29.00;;;;;;5010260;28;20707;-71
2022/04/29 07:53:13;;;;;;;29.60;17.90;;;15.80;29.00;;;;;;5013220;28;20433;-71
2022/04/29 07:55:39;;;;;;;23.07;15.97;;;15.30;30.00;;;;;;5013657;28;20416;-71
2022/04/29 07:58:05;;;;;;;22.60;15.47;;;15.30;30.30;;;;;;5013652;28;20418;-71
2022/04/29 08:00:31;;;;;;;21.57;15.83;;;15.50;29.70;;;;;;5013164;28;20434;-71
2022/04/29 08:03:02;;;;;;;28.33;16.20;;;15.20;31.30;;;;;;5013153;28;20209;-71
2022/04/29 08:05:28;;;;;;;26.23;16.30;;;16.00;29.10;;;;;;5013350;28;20420;-71
2022/04/29 08:07:59;;;;;;;25.30;15.43;;;15.80;30.00;;;;;;5013187;28;20432;-71
2022/04/29 08:10:32;;;;;;;23.17;15.00;;;15.30;29.80;;;;;;5012562;28;20255;-71
2022/04/29 08:13:02;;;;;;;30.37;15.17;;;16.10;30.90;;;;;;5012983;28;20546;-71
2022/04/29 08:15:29;;;;;;;27.03;16.57;;;16.30;28.30;;;;;;5011830;28;20573;-71
2022/04/29 08:17:55;;;;;;;27.50;15.10;;;16.10;30.00;;;;;;5013038;28;21011;-71
2022/04/29 08:20:21;;;;;;;24.87;15.40;;;16.10;29.80;;;;;;5012988;28;20512;-71
2022/04/29 08:22:47;;;;;;;22.70;14.30;;;16.50;29.30;;;;;;5012997;28;20532;-71
2022/04/29 08:25:15;;;;;;;25.60;15.37;;;17.40;28.60;;;;;;5012567;28;20517;-71
2022/04/29 08:27:41;;;;;;;23.70;15.43;;;17.70;26.60;;;;;;5012135;28;20975;-71
2022/04/29 08:30:08;;;;;;;18.17;13.73;;;17.40;28.00;;;;;;5011930;28;20457;-71
2022/04/29 08:32:38;;;;;;;14.73;9.73;;;17.50;27.30;;;;;;5011793;28;20449;-71
2022/04/29 08:35:04;;;;;;;16.07;8.37;;;17.70;23.90;;;;;;5010959;28;20514;-71
2022/04/29 08:37:29;;;;;;;11.60;8.60;;;18.50;23.80;;;;;;5011312;28;20522;-71
2022/04/29 08:39:55;;;;;;;15.10;7.60;;;18.60;21.50;;;;;;5012156;28;20960;-71
2022/04/29 08:42:24;;;;;;;14.30;7.30;;;18.90;17.80;;;;;;5011664;28;20219;-71
2022/04/29 08:44:52;;;;;;;15.13;7.70;;;18.60;18.20;;;;;;5011581;28;20659;-71
2022/04/29 08:47:18;;;;;;;10.03;6.80;;;19.00;17.80;;;;;;5012239;28;20508;-71
2022/04/29 08:49:44;;;;;;;19.43;6.77;;;19.50;17.90;;;;;;5012290;28;20518;-71
2022/04/29 08:52:11;;;;;;;16.43;7.27;;;19.30;18.70;;;;;;5012158;28;20209;-72
2022/04/29 09:00:08;;;;;;;9.97;7.27;;;19.60;17.00;;;;;;5007513;28;20526;-71
2022/04/29 09:02:40;;;;;;;12.97;7.70;;;19.70;16.10;;;;;;5009289;28;20455;-71
2022/04/29 09:05:08;;;;;;;13.67;6.90;;;20.00;16.10;;;;;;5007253;28;20440;-72
2022/04/29 09:08:02;;;;;;;13.70;6.70;;;20.20;18.00;;;;;;5010074;28;21005;-71
2022/04/29 09:10:36;;;;;;;31.63;7.10;;;19.80;18.20;;;;;;5009432;28;20458;-71
2022/04/29 09:13:24;;;;;;;10.57;6.80;;;19.70;15.90;;;;;;5009779;28;20458;-73
2022/04/29 09:16:00;;;;;;;11.80;7.30;;;19.90;15.50;;;;;;5008113;28;20496;-71
2022/04/29 09:18:33;;;;;;;13.23;8.07;;;19.60;18.00;;;;;;5008967;28;20422;-71
2022/04/29 09:21:03;;;;;;;12.80;6.47;;;20.30;16.00;;;;;;5010345;28;20432;-72
2022/04/29 09:23:30;;;;;;;13.97;6.80;;;20.70;15.70;;;;;;5010145;28;20440;-71
2022/04/29 09:25:58;;;;;;;9.77;6.33;;;20.30;16.40;;;;;;5011223;28;20425;-71
2022/04/29 09:28:25;;;;;;;12.57;7.13;;;20.80;17.30;;;;;;5008610;28;20439;-72
2022/04/29 09:30:55;;;;;;;10.40;7.03;;;20.70;15.60;;;;;;5008694;28;20463;-72
2022/04/29 09:33:22;;;;;;;8.93;6.47;;;20.10;15.30;;;;;;5009200;28;20447;-72
2022/04/29 09:35:49;;;;;;;12.07;6.10;;;20.50;15.50;;;;;;5010775;28;21147;-73
2022/04/29 09:41:00;;;;;;;10.63;6.90;;;20.80;16.90;;;;;;5007482;28;20427;-71
2022/04/29 09:43:37;;;;;;;12.43;6.07;;;20.50;16.80;;;;;;5008811;28;20837;-72
2022/04/29 09:46:23;;;;;;;8.17;6.07;;;21.10;16.00;;;;;;5010537;28;20434;-72
2022/04/29 09:48:57;;;;;;;8.90;6.97;;;21.10;13.70;;;;;;5008370;28;20551;-71
2022/04/29 09:51:43;;;;;;;11.87;6.70;;;20.90;14.90;;;;;;5006456;28;20996;-72
2022/04/29 09:54:10;;;;;;;10.20;6.97;;;21.40;15.80;;;;;;5007959;28;20443;-71
2022/04/29 09:56:36;;;;;;;10.17;7.10;;;21.30;15.00;;;;;;5010785;28;20509;-71
2022/04/29 09:59:02;;;;;;;11.03;6.83;;;21.80;13.60;;;;;;5010740;28;20526;-72
2022/04/29 10:01:29;;;;;;;11.43;6.70;;;21.40;13.30;;;;;;5010171;28;20205;-72
2022/04/29 10:04:04;;;;;;;10.60;6.67;;;21.70;14.10;;;;;;5010169;28;20996;-71
2022/04/29 10:06:32;;;;;;;13.30;6.60;;;21.80;13.10;;;;;;5009127;28;20449;-72
2022/04/29 10:08:58;;;;;;;10.67;6.50;;;21.90;12.50;;;;;;5010633;28;20435;-72
2022/04/29 10:11:26;;;;;;;11.67;6.20;;;22.10;12.60;;;;;;5010027;28;20468;-71
2022/04/29 10:13:53;;;;;;;7.40;5.60;;;22.70;12.70;;;;;;5009804;28;20436;-71
2022/04/29 10:16:20;;;;;;;8.63;6.53;;;22.90;14.20;;;;;;5009275;28;20447;-72
2022/04/29 10:21:43;;;;;;;9.33;6.00;;;22.10;13.80;;;;;;5004919;28;20841;-71
2022/04/29 10:24:09;;;;;;;16.03;6.50;;;22.20;14.20;;;;;;5009221;28;20522;-71
2022/04/29 10:26:35;;;;;;;7.50;5.73;;;21.80;12.30;;;;;;5009486;28;20546;-71
2022/04/29 10:29:02;;;;;;;9.83;6.00;;;21.60;13.70;;;;;;5010403;28;20188;-72
2022/04/29 10:31:31;;;;;;;7.90;5.93;;;22.10;15.80;;;;;;5009860;28;20219;-71
2022/04/29 10:34:26;;;;;;;8.63;6.27;;;22.40;14.40;;;;;;5010434;28;20923;-72
2022/04/29 10:36:52;;;;;;;8.87;5.73;;;22.20;13.80;;;;;;5009672;28;20432;-71
2022/04/29 10:39:20;;;;;;;11.33;6.13;;;22.60;14.10;;;;;;5009976;28;20432;-72
2022/04/29 10:42:04;;;;;;;12.20;6.50;;;23.30;12.40;;;;;;5008741;28;20220;-70
2022/04/29 10:44:31;;;;;;;11.63;7.17;;;23.90;11.00;;;;;;5008727;28;20804;-72
2022/04/29 10:47:16;;;;;;;8.87;6.60;;;24.00;12.20;;;;;;5009737;28;20531;-71
2022/04/29 10:49:42;;;;;;;9.33;6.27;;;23.60;12.80;;;;;;5009161;28;20450;-72
2022/04/29 10:52:24;;;;;;;7.13;6.07;;;23.30;13.00;;;;;;5009823;28;20459;-71
2022/04/29 10:54:56;;;;;;;7.57;5.80;;;24.00;13.60;;;;;;5010217;28;20539;-71
2022/04/29 10:57:40;;;;;;;11.90;6.10;;;24.30;12.00;;;;;;5005913;28;20436;-71
2022/04/29 11:00:13;;;;;;;12.27;6.43;;;24.50;10.50;;;;;;5008806;28;20438;-71
2022/04/29 11:02:38;;;;;;;10.70;7.00;;;23.90;13.60;;;;;;5009810;28;20455;-72
2022/04/29 11:05:05;;;;;;;11.67;8.23;;;23.80;12.60;;;;;;5009977;28;20432;-71
2022/04/29 11:07:39;;;;;;;14.03;8.40;;;23.20;12.10;;;;;;5011267;28;20611;-72
2022/04/29 11:10:06;;;;;;;9.43;7.10;;;23.70;11.20;;;;;;5013614;28;20470;-71
2022/04/29 11:12:37;;;;;;;9.13;7.27;;;23.90;15.00;;;;;;5012137;28;20818;-71
2022/04/29 11:15:16;;;;;;;10.93;7.33;;;24.20;12.80;;;;;;5013214;28;20926;-73
2022/04/29 11:17:43;;;;;;;13.83;8.00;;;23.60;12.10;;;;;;5010335;28;20439;-73
2022/04/29 11:20:15;;;;;;;13.07;8.33;;;23.50;14.40;;;;;;5013098;28;20849;-71
2022/04/29 11:25:25;;;;;;;12.57;7.63;;;24.50;14.60;;;;;;5009883;28;20527;-71
2022/04/29 11:27:51;;;;;;;11.40;7.83;;;24.30;15.30;;;;;;5013023;28;20518;-71
2022/04/29 11:30:18;;;;;;;12.70;7.03;;;24.80;12.40;;;;;;5013277;28;20208;-71
2022/04/29 11:32:44;;;;;;;11.00;7.63;;;25.60;12.60;;;;;;5012342;28;20455;-71
2022/04/29 11:35:10;;;;;;;10.93;7.30;;;25.90;12.80;;;;;;5013241;28;20446;-71
2022/04/29 11:37:36;;;;;;;13.40;6.80;;;26.40;12.40;;;;;;5013152;28;20184;-71
2022/04/29 11:40:09;;;;;;;11.80;7.37;;;27.40;9.70;;;;;;5012819;28;20427;-71
2022/04/29 11:42:36;;;;;;;9.70;6.20;;;27.80;10.20;;;;;;5027109;28;20479;-71
2022/04/29 11:45:08;;;;;;;10.47;6.63;;;27.50;10.60;;;;;;5013377;28;20431;-71
2022/04/29 11:47:36;;;;;;;12.73;7.10;;;27.90;9.30;;;;;;5012701;28;20797;-71
2022/04/29 11:50:02;;;;;;;14.00;6.70;;;28.70;8.90;;;;;;5012625;28;20935;-71
2022/04/29 11:52:30;;;;;;;12.90;6.50;;;28.20;9.10;;;;;;5012253;28;20994;-71
2022/04/29 11:55:06;;;;;;;8.53;6.40;;;28.70;11.70;;;;;;5013154;28;20494;-71
2022/04/29 11:57:43;;;;;;;11.93;7.07;;;29.40;8.70;;;;;;5009673;28;20505;-72
2022/04/29 12:00:09;;;;;;;8.73;6.07;;;29.50;8.20;;;;;;5012464;28;20446;-72
2022/04/29 12:02:35;;;;;;;11.37;6.90;;;28.80;7.90;;;;;;5011825;28;20455;-72
2022/04/29 12:05:03;;;;;;;9.10;6.23;;;28.60;9.40;;;;;;5012148;28;20978;-71
2022/04/29 12:07:40;;;;;;;17.17;5.77;;;28.70;8.10;;;;;;5011480;28;20431;-71
2022/04/29 12:10:32;;;;;;;9.07;5.77;;;27.10;9.00;;;;;;5011732;28;20471;-71
2022/04/29 12:13:03;;;;;;;11.37;6.77;;;25.60;10.90;;;;;;5010458;28;20455;-71
2022/04/29 12:15:37;;;;;;;8.10;5.70;;;25.30;10.50;;;;;;5017664;28;20411;-72
2022/04/29 12:18:09;;;;;;;9.80;6.20;;;26.70;9.60;;;;;;5014599;28;20431;-71
2022/04/29 12:20:37;;;;;;;8.87;6.30;;;26.60;8.50;;;;;;5013033;28;20486;-72
2022/04/29 12:23:20;;;;;;;10.53;6.40;;;26.70;9.50;;;;;;5012285;28;20448;-71
2022/04/29 12:25:47;;;;;;;11.30;6.27;;;27.00;9.40;;;;;;5010715;28;20451;-72
2022/04/29 12:28:18;;;;;;;10.03;6.40;;;27.60;9.10;;;;;;5011649;28;20443;-71
2022/04/29 12:36:27;;;;;;;7.47;5.33;;;26.90;7.00;;;;;;5011140;28;20439;-71
2022/04/29 12:39:03;;;;;;;14.10;6.33;;;26.40;10.60;;;;;;5011387;28;20432;-71
2022/04/29 12:41:29;;;;;;;10.87;6.50;;;26.50;10.50;;;;;;5009100;28;20580;-72
2022/04/29 12:44:07;;;;;;;10.13;6.67;;;25.90;12.50;;;;;;5008240;28;20431;-69
2022/04/29 12:46:33;;;;;;;11.07;6.37;;;26.90;6.90;;;;;;5009437;28;20435;-69
2022/04/29 12:48:58;;;;;;;11.03;7.37;;;27.60;10.80;;;;;;5011848;28;20442;-69
2022/04/29 12:51:32;;;;;;;14.20;7.80;;;28.90;7.50;;;;;;5011204;28;20686;-69
2022/04/29 12:54:00;;;;;;;14.23;7.80;;;29.80;8.20;;;;;;5008415;28;20752;-69
2022/04/29 12:56:34;;;;;;;15.80;7.83;;;29.30;8.30;;;;;;5011753;28;20519;-70
2022/04/29 12:59:03;;;;;;;10.10;7.17;;;28.70;8.10;;;;;;5010697;28;20843;-70
2022/04/29 13:01:39;;;;;;;9.90;7.67;;;27.60;9.00;;;;;;5010655;28;20456;-69
2022/04/29 13:04:06;;;;;;;9.30;7.40;;;26.80;10.70;;;;;;5010458;28;20434;-69